createdAt,value
2019-01-28T00:00:35.273Z,1.52
2019-01-28T00:01:40.233Z,1.48
2019-01-28T00:02:43.689Z,1.47
2019-01-28T00:03:46.969Z,1.46
2019-01-28T00:04:50.251Z,1.41
2019-01-28T00:05:53.535Z,1.34
2019-01-28T00:06:56.846Z,1.29
2019-01-28T00:08:00.132Z,1.29
2019-01-28T00:09:04.667Z,1.25
2019-01-28T00:10:08.431Z,1.29
2019-01-28T00:11:11.714Z,1.37
2019-01-28T00:12:15.026Z,1.45
2019-01-28T00:13:18.385Z,1.55
2019-01-28T00:14:22.024Z,1.67
2019-01-28T00:15:25.383Z,1.66
2019-01-28T00:16:28.672Z,1.66
2019-01-28T00:17:32.064Z,1.63
2019-01-28T00:18:35.347Z,1.65
2019-01-28T00:19:38.633Z,1.56
2019-01-28T00:20:41.905Z,1.46
2019-01-28T00:21:45.257Z,1.48
2019-01-28T00:22:48.576Z,1.43
2019-01-28T00:23:51.965Z,1.39
2019-01-28T00:24:55.312Z,1.39
2019-01-28T00:25:58.601Z,1.42
2019-01-28T00:27:01.888Z,1.43
2019-01-28T00:28:05.202Z,1.33
2019-01-28T00:29:08.477Z,1.26
2019-01-28T00:30:11.904Z,1.25
2019-01-28T00:31:15.188Z,1.36
2019-01-28T00:32:18.472Z,1.44
2019-01-28T00:33:21.759Z,1.52
2019-01-28T00:34:25.046Z,1.53
2019-01-28T00:35:28.337Z,1.57
2019-01-28T00:36:31.685Z,1.52
2019-01-28T00:37:34.980Z,1.53
2019-01-28T00:38:38.305Z,1.48
2019-01-28T00:39:41.589Z,1.40
2019-01-28T00:40:44.879Z,1.32
2019-01-28T00:41:48.166Z,1.28
2019-01-28T00:42:51.479Z,1.29
2019-01-28T00:43:54.799Z,1.36
2019-01-28T00:44:58.084Z,1.40
2019-01-28T00:46:01.369Z,1.38
2019-01-28T00:47:04.950Z,1.35
2019-01-28T00:48:08.231Z,1.27
2019-01-28T00:49:11.539Z,1.23
2019-01-28T00:50:14.831Z,1.31
2019-01-28T00:51:18.102Z,1.47
2019-01-28T00:52:21.385Z,1.59
2019-01-28T00:53:24.672Z,1.60
2019-01-28T00:54:27.978Z,1.49
2019-01-28T00:55:31.410Z,1.39
2019-01-28T00:56:34.688Z,1.28
2019-01-28T00:57:38.041Z,1.31
2019-01-28T00:58:41.317Z,1.32
2019-01-28T00:59:44.706Z,1.32
2019-01-28T01:00:47.981Z,1.21
2019-01-28T01:01:51.944Z,1.04
2019-01-28T01:02:55.612Z,0.98
2019-01-28T01:03:58.891Z,0.96
2019-01-28T01:05:02.542Z,0.98
2019-01-28T01:06:05.823Z,0.87
2019-01-28T01:07:09.111Z,0.89
2019-01-28T01:08:12.397Z,0.93
2019-01-28T01:09:15.823Z,0.99
2019-01-28T01:10:19.136Z,1.10
2019-01-28T01:11:22.419Z,1.12
2019-01-28T01:12:25.706Z,1.08
2019-01-28T01:13:29.385Z,0.98
2019-01-28T01:14:32.666Z,0.98
2019-01-28T01:15:35.987Z,0.95
2019-01-28T01:16:39.259Z,0.97
2019-01-28T01:17:42.551Z,1.00
2019-01-28T01:18:45.833Z,1.02
2019-01-28T01:19:49.122Z,0.92
2019-01-28T01:20:52.865Z,0.90
2019-01-28T01:21:56.144Z,0.88
2019-01-28T01:22:59.427Z,0.78
2019-01-28T01:24:02.717Z,0.74
2019-01-28T01:25:06.921Z,0.71
2019-01-28T01:26:10.238Z,0.70
2019-01-28T01:27:13.585Z,0.76
2019-01-28T01:28:16.939Z,0.75
2019-01-28T01:29:20.226Z,0.82
2019-01-28T01:30:23.512Z,0.89
2019-01-28T01:31:27.187Z,0.97
2019-01-28T01:32:30.469Z,1.06
2019-01-28T01:33:34.132Z,1.07
2019-01-28T01:34:37.416Z,1.14
2019-01-28T01:35:40.709Z,1.07
2019-01-28T01:36:44.008Z,0.97
2019-01-28T01:37:47.676Z,0.89
2019-01-28T01:38:50.952Z,0.78
2019-01-28T01:39:54.253Z,0.72
2019-01-28T01:40:57.568Z,0.76
2019-01-28T01:42:00.892Z,0.70
2019-01-28T01:43:04.173Z,0.67
2019-01-28T01:44:07.523Z,0.70
2019-01-28T01:45:13.311Z,0.74
2019-01-28T01:46:16.666Z,0.77
2019-01-28T01:47:20.056Z,0.83
2019-01-28T01:48:23.346Z,0.89
2019-01-28T01:49:26.621Z,0.92
2019-01-28T01:50:30.026Z,1.00
2019-01-28T01:51:33.312Z,1.08
2019-01-28T01:52:36.633Z,1.15
2019-01-28T01:53:39.919Z,1.11
2019-01-28T01:54:43.218Z,0.99
2019-01-28T01:55:46.544Z,0.92
2019-01-28T01:56:49.820Z,0.89
2019-01-28T01:57:53.112Z,0.89
2019-01-28T01:58:56.395Z,0.88
2019-01-28T01:59:59.672Z,0.85
2019-01-28T02:01:03.028Z,0.81
2019-01-28T02:02:06.315Z,0.72
2019-01-28T02:03:10.061Z,0.71
2019-01-28T02:04:13.797Z,0.76
2019-01-28T02:05:17.079Z,0.69
2019-01-28T02:06:20.362Z,0.66
2019-01-28T02:07:23.648Z,0.68
2019-01-28T02:08:27.021Z,0.72
2019-01-28T02:09:30.296Z,0.83
2019-01-28T02:10:33.581Z,0.91
2019-01-28T02:11:37.026Z,0.99
2019-01-28T02:12:40.300Z,1.11
2019-01-28T02:13:43.623Z,1.08
2019-01-28T02:14:46.908Z,0.98
2019-01-28T02:15:50.206Z,0.94
2019-01-28T02:16:53.489Z,1.02
2019-01-28T02:17:56.776Z,1.03
2019-01-28T02:19:00.093Z,1.04
2019-01-28T02:20:04.421Z,1.09
2019-01-28T02:21:07.695Z,1.11
2019-01-28T02:22:10.983Z,1.13
2019-01-28T02:23:14.265Z,1.16
2019-01-28T02:24:17.647Z,1.14
2019-01-28T02:25:20.923Z,1.15
2019-01-28T02:26:24.208Z,1.17
2019-01-28T02:27:27.569Z,1.18
2019-01-28T02:28:30.845Z,1.12
2019-01-28T02:29:34.237Z,1.15
2019-01-28T02:30:37.525Z,1.21
2019-01-28T02:31:40.808Z,1.35
2019-01-28T02:32:44.156Z,1.42
2019-01-28T02:33:47.440Z,1.41
2019-01-28T02:34:50.765Z,1.35
2019-01-28T02:35:54.050Z,1.26
2019-01-28T02:36:57.330Z,1.22
2019-01-28T02:38:00.630Z,1.23
2019-01-28T02:39:05.432Z,1.17
2019-01-28T02:40:14.471Z,1.15
2019-01-28T02:41:17.837Z,1.16
2019-01-28T02:42:21.122Z,1.27
2019-01-28T02:43:24.406Z,1.23
2019-01-28T02:44:27.686Z,1.25
2019-01-28T02:45:31.076Z,1.29
2019-01-28T02:46:34.361Z,1.34
2019-01-28T02:47:37.644Z,1.40
2019-01-28T02:48:41.031Z,1.38
2019-01-28T02:49:45.106Z,1.42
2019-01-28T02:50:48.427Z,1.48
2019-01-28T02:51:51.733Z,1.46
2019-01-28T02:52:55.024Z,1.43
2019-01-28T02:53:58.633Z,1.43
2019-01-28T02:55:02.218Z,1.41
2019-01-28T02:56:05.527Z,1.29
2019-01-28T02:57:08.835Z,1.26
2019-01-28T02:58:12.109Z,1.20
2019-01-28T02:59:15.391Z,1.16
2019-01-28T03:00:22.659Z,1.17
2019-01-28T03:01:25.999Z,1.23
2019-01-28T03:02:29.281Z,1.26
2019-01-28T03:03:32.565Z,1.21
2019-01-28T03:04:35.920Z,1.34
2019-01-28T03:05:39.209Z,1.33
2019-01-28T03:06:42.532Z,1.25
2019-01-28T03:07:45.831Z,1.23
2019-01-28T03:08:49.155Z,1.34
2019-01-28T03:09:52.800Z,1.43
2019-01-28T03:10:56.162Z,1.49
2019-01-28T03:11:59.962Z,1.54
2019-01-28T03:13:03.243Z,1.52
2019-01-28T03:14:06.533Z,1.45
2019-01-28T03:15:10.496Z,1.49
2019-01-28T03:16:13.763Z,1.51
2019-01-28T03:17:17.079Z,1.45
2019-01-28T03:18:20.356Z,1.39
2019-01-28T03:19:23.663Z,1.48
2019-01-28T03:20:26.963Z,1.50
2019-01-28T03:21:30.246Z,1.36
2019-01-28T03:22:33.559Z,1.31
2019-01-28T03:23:36.908Z,1.42
2019-01-28T03:24:40.194Z,1.53
2019-01-28T03:25:43.477Z,1.52
2019-01-28T03:26:46.766Z,1.52
2019-01-28T03:27:50.074Z,1.54
2019-01-28T03:28:53.356Z,1.59
2019-01-28T03:29:56.639Z,1.61
2019-01-28T03:30:59.927Z,1.55
2019-01-28T03:32:03.213Z,1.60
2019-01-28T03:33:06.533Z,1.57
2019-01-28T03:34:09.809Z,1.52
2019-01-28T03:35:13.133Z,1.46
2019-01-28T03:36:16.416Z,1.47
2019-01-28T03:37:19.693Z,1.43
2019-01-28T03:38:23.402Z,1.34
2019-01-28T03:39:26.682Z,1.35
2019-01-28T03:40:30.284Z,1.33
2019-01-28T03:41:33.569Z,1.35
2019-01-28T03:42:36.847Z,1.31
2019-01-28T03:43:40.170Z,1.27
2019-01-28T03:44:43.451Z,1.33
2019-01-28T03:45:46.731Z,1.35
2019-01-28T03:46:50.153Z,1.40
2019-01-28T03:47:53.424Z,1.42
2019-01-28T03:48:56.741Z,1.43
2019-01-28T03:50:00.024Z,1.39
2019-01-28T03:51:03.310Z,1.42
2019-01-28T03:52:07.963Z,1.36
2019-01-28T03:53:12.607Z,1.37
2019-01-28T03:54:15.924Z,1.36
2019-01-28T03:55:19.455Z,1.39
2019-01-28T03:56:22.732Z,1.40
2019-01-28T03:57:26.015Z,1.40
2019-01-28T03:58:29.436Z,1.37
2019-01-28T03:59:32.849Z,1.39
2019-01-28T04:00:36.135Z,1.37
2019-01-28T04:01:39.754Z,1.41
2019-01-28T04:02:43.035Z,1.43
2019-01-28T04:03:46.317Z,1.39
2019-01-28T04:04:49.628Z,1.32
2019-01-28T04:05:52.922Z,1.42
2019-01-28T04:06:56.202Z,1.53
2019-01-28T04:07:59.496Z,1.55
2019-01-28T04:09:04.423Z,1.50
2019-01-28T04:10:11.074Z,1.41
2019-01-28T04:11:14.717Z,1.38
2019-01-28T04:12:18.018Z,1.41
2019-01-28T04:13:21.283Z,1.38
2019-01-28T04:14:24.569Z,1.36
2019-01-28T04:15:27.893Z,1.35
2019-01-28T04:16:31.551Z,1.35
2019-01-28T04:17:34.836Z,1.35
2019-01-28T04:18:38.123Z,1.27
2019-01-28T04:19:41.747Z,1.27
2019-01-28T04:20:45.062Z,1.27
2019-01-28T04:21:48.349Z,1.23
2019-01-28T04:22:51.630Z,1.30
2019-01-28T04:23:55.289Z,1.32
2019-01-28T04:24:58.716Z,1.36
2019-01-28T04:26:02.024Z,1.42
2019-01-28T04:27:05.304Z,1.51
2019-01-28T04:28:08.586Z,1.49
2019-01-28T04:29:11.868Z,1.45
2019-01-28T04:30:20.122Z,1.47
2019-01-28T04:31:23.426Z,1.54
2019-01-28T04:32:26.715Z,1.54
2019-01-28T04:33:29.993Z,1.52
2019-01-28T04:34:33.346Z,1.44
2019-01-28T04:35:36.629Z,1.43
2019-01-28T04:36:40.010Z,1.51
2019-01-28T04:37:43.403Z,1.58
2019-01-28T04:38:46.702Z,1.61
2019-01-28T04:39:50.377Z,1.69
2019-01-28T04:40:53.660Z,1.84
2019-01-28T04:41:57.119Z,1.86
2019-01-28T04:43:00.719Z,1.84
2019-01-28T04:44:04.009Z,1.84
2019-01-28T04:45:10.690Z,1.87
2019-01-28T04:46:14.011Z,1.89
2019-01-28T04:47:17.333Z,1.95
2019-01-28T04:48:20.604Z,1.92
2019-01-28T04:49:23.888Z,1.88
2019-01-28T04:50:27.170Z,1.88
2019-01-28T04:51:30.820Z,1.80
2019-01-28T04:52:34.197Z,1.74
2019-01-28T04:53:37.567Z,1.73
2019-01-28T04:54:40.891Z,1.64
2019-01-28T04:55:44.174Z,1.53
2019-01-28T04:56:47.483Z,1.57
2019-01-28T04:57:50.770Z,1.52
2019-01-28T04:58:54.351Z,1.56
2019-01-28T04:59:57.871Z,1.53
2019-01-28T05:01:01.178Z,1.50
2019-01-28T05:02:04.458Z,1.47
2019-01-28T05:03:07.745Z,1.46
2019-01-28T05:04:11.029Z,1.46
2019-01-28T05:05:14.715Z,1.52
2019-01-28T05:06:18.077Z,1.52
2019-01-28T05:07:21.427Z,1.44
2019-01-28T05:08:24.707Z,1.42
2019-01-28T05:09:27.999Z,1.46
2019-01-28T05:10:31.316Z,1.48
2019-01-28T05:11:34.666Z,1.41
2019-01-28T05:12:37.973Z,1.41
2019-01-28T05:13:41.267Z,1.38
2019-01-28T05:14:44.847Z,1.34
2019-01-28T05:15:48.200Z,1.32
2019-01-28T05:16:51.489Z,1.33
2019-01-28T05:17:54.776Z,1.32
2019-01-28T05:18:58.064Z,1.37
2019-01-28T05:20:01.420Z,1.40
2019-01-28T05:21:04.772Z,1.39
2019-01-28T05:22:08.119Z,1.40
2019-01-28T05:23:11.423Z,1.41
2019-01-28T05:24:14.706Z,1.41
2019-01-28T05:25:18.239Z,1.39
2019-01-28T05:26:21.920Z,1.38
2019-01-28T05:27:25.206Z,1.33
2019-01-28T05:28:28.525Z,1.32
2019-01-28T05:29:31.874Z,1.33
2019-01-28T05:30:35.381Z,1.38
2019-01-28T05:31:38.738Z,1.41
2019-01-28T05:32:42.443Z,1.43
2019-01-28T05:33:45.862Z,1.47
2019-01-28T05:34:49.138Z,1.50
2019-01-28T05:35:52.458Z,1.50
2019-01-28T05:36:55.734Z,1.55
2019-01-28T05:37:59.101Z,1.60
2019-01-28T05:39:02.486Z,1.57
2019-01-28T05:40:14.694Z,1.53
2019-01-28T05:41:18.048Z,1.58
2019-01-28T05:42:21.346Z,1.59
2019-01-28T05:43:24.670Z,1.61
2019-01-28T05:44:27.998Z,1.63
2019-01-28T05:45:31.281Z,1.60
2019-01-28T05:46:34.565Z,1.61
2019-01-28T05:47:37.859Z,1.50
2019-01-28T05:48:41.217Z,1.49
2019-01-28T05:49:44.547Z,1.47
2019-01-28T05:50:47.906Z,1.46
2019-01-28T05:51:51.193Z,1.46
2019-01-28T05:52:54.496Z,1.41
2019-01-28T05:53:58.184Z,1.41
2019-01-28T05:55:01.503Z,1.45
2019-01-28T05:56:04.792Z,1.54
2019-01-28T05:57:08.781Z,1.57
2019-01-28T05:58:12.149Z,1.54
2019-01-28T05:59:15.445Z,1.49
2019-01-28T06:00:21.263Z,1.53
2019-01-28T06:01:24.911Z,1.58
2019-01-28T06:02:28.189Z,1.50
2019-01-28T06:03:31.470Z,1.47
2019-01-28T06:04:34.758Z,1.52
2019-01-28T06:05:38.090Z,1.49
2019-01-28T06:06:41.375Z,1.46
2019-01-28T06:07:44.737Z,1.41
2019-01-28T06:08:48.021Z,1.46
2019-01-28T06:09:51.314Z,1.53
2019-01-28T06:10:54.641Z,1.55
2019-01-28T06:11:57.922Z,1.60
2019-01-28T06:13:01.282Z,1.61
2019-01-28T06:14:05.003Z,1.59
2019-01-28T06:15:11.607Z,1.62
2019-01-28T06:16:15.030Z,1.68
2019-01-28T06:17:18.316Z,1.66
2019-01-28T06:18:21.601Z,1.71
2019-01-28T06:19:24.885Z,1.71
2019-01-28T06:20:28.488Z,1.73
2019-01-28T06:21:31.816Z,1.77
2019-01-28T06:22:35.102Z,1.81
2019-01-28T06:23:38.748Z,1.81
2019-01-28T06:24:42.115Z,1.88
2019-01-28T06:25:45.415Z,1.91
2019-01-28T06:26:48.742Z,1.94
2019-01-28T06:27:52.027Z,2.02
2019-01-28T06:28:55.335Z,2.02
2019-01-28T06:29:58.635Z,2.04
2019-01-28T06:31:01.923Z,2.11
2019-01-28T06:32:05.222Z,2.08
2019-01-28T06:33:08.521Z,2.08
2019-01-28T06:34:11.809Z,2.11
2019-01-28T06:35:15.119Z,2.15
2019-01-28T06:36:18.845Z,2.18
2019-01-28T06:37:22.165Z,2.18
2019-01-28T06:38:25.539Z,2.17
2019-01-28T06:39:28.833Z,2.15
2019-01-28T06:40:33.870Z,2.22
2019-01-28T06:41:37.230Z,2.26
2019-01-28T06:42:40.708Z,2.23
2019-01-28T06:43:44.040Z,2.27
2019-01-28T06:44:47.296Z,2.30
2019-01-28T06:45:50.586Z,2.36
2019-01-28T06:46:53.879Z,2.44
2019-01-28T06:47:57.202Z,2.47
2019-01-28T06:49:00.495Z,2.44
2019-01-28T06:50:06.138Z,2.44
2019-01-28T06:51:10.438Z,2.46
2019-01-28T06:52:13.794Z,2.56
2019-01-28T06:53:17.147Z,2.58
2019-01-28T06:54:20.506Z,2.58
2019-01-28T06:55:23.807Z,2.65
2019-01-28T06:56:27.407Z,2.67
2019-01-28T06:57:30.757Z,2.71
2019-01-28T06:58:34.380Z,2.71
2019-01-28T06:59:37.672Z,2.76
2019-01-28T07:00:41.034Z,2.80
2019-01-28T07:01:44.388Z,2.84
2019-01-28T07:02:47.751Z,2.82
2019-01-28T07:03:51.083Z,2.82
2019-01-28T07:04:54.369Z,2.89
2019-01-28T07:05:57.976Z,2.95
2019-01-28T07:07:01.270Z,3.00
2019-01-28T07:08:04.566Z,3.01
2019-01-28T07:09:09.134Z,3.10
2019-01-28T07:10:12.589Z,3.14
2019-01-28T07:11:15.896Z,3.25
2019-01-28T07:12:19.257Z,3.33
2019-01-28T07:13:22.642Z,3.32
2019-01-28T07:14:25.975Z,3.35
2019-01-28T07:15:29.278Z,3.44
2019-01-28T07:16:33.503Z,3.55
2019-01-28T07:17:36.841Z,3.62
2019-01-28T07:18:40.147Z,3.71
2019-01-28T07:19:43.474Z,3.74
2019-01-28T07:20:46.840Z,3.71
2019-01-28T07:21:50.208Z,3.70
2019-01-28T07:22:53.580Z,3.74
2019-01-28T07:23:57.020Z,3.84
2019-01-28T07:25:00.360Z,3.81
2019-01-28T07:26:04.053Z,3.85
2019-01-28T07:27:07.492Z,3.91
2019-01-28T07:28:10.788Z,4.00
2019-01-28T07:29:14.518Z,4.13
2019-01-28T07:30:24.471Z,4.26
2019-01-28T07:31:27.766Z,4.33
2019-01-28T07:32:31.064Z,4.34
2019-01-28T07:33:34.356Z,4.42
2019-01-28T07:34:37.798Z,4.46
2019-01-28T07:35:41.272Z,4.49
2019-01-28T07:36:44.617Z,4.48
2019-01-28T07:37:47.923Z,4.50
2019-01-28T07:38:51.289Z,4.50
2019-01-28T07:39:54.593Z,4.57
2019-01-28T07:40:57.939Z,4.65
2019-01-28T07:42:01.211Z,4.80
2019-01-28T07:43:04.587Z,4.81
2019-01-28T07:44:07.863Z,4.88
2019-01-28T07:45:20.648Z,4.91
2019-01-28T07:46:23.975Z,4.96
2019-01-28T07:47:27.340Z,4.98
2019-01-28T07:48:30.707Z,5.06
2019-01-28T07:49:33.999Z,5.19
2019-01-28T07:50:37.300Z,5.33
2019-01-28T07:51:40.706Z,5.43
2019-01-28T07:52:43.995Z,5.55
2019-01-28T07:53:47.384Z,5.63
2019-01-28T07:54:50.672Z,5.74
2019-01-28T07:55:53.979Z,5.86
2019-01-28T07:56:57.304Z,5.96
2019-01-28T07:58:00.603Z,6.06
2019-01-28T07:59:03.969Z,6.23
2019-01-28T08:00:25.216Z,6.34
2019-01-28T08:01:28.573Z,6.42
2019-01-28T08:02:31.964Z,6.48
2019-01-28T08:03:35.251Z,6.53
2019-01-28T08:04:38.533Z,6.57
2019-01-28T08:05:42.248Z,6.60
2019-01-28T08:06:45.566Z,6.70
2019-01-28T08:07:48.864Z,6.70
2019-01-28T08:08:52.220Z,6.70
2019-01-28T08:09:55.521Z,6.75
2019-01-28T08:10:58.797Z,6.80
2019-01-28T08:12:02.089Z,6.76
2019-01-28T08:13:06.087Z,6.85
2019-01-28T08:14:09.366Z,6.91
2019-01-28T08:15:27.241Z,6.96
2019-01-28T08:16:30.526Z,7.06
2019-01-28T08:17:34.258Z,7.17
2019-01-28T08:18:37.560Z,7.25
2019-01-28T08:19:40.839Z,7.28
2019-01-28T08:20:44.240Z,7.32
2019-01-28T08:21:47.524Z,7.37
2019-01-28T08:22:50.873Z,7.43
2019-01-28T08:23:54.546Z,7.52
2019-01-28T08:24:57.830Z,7.54
2019-01-28T08:26:01.158Z,7.61
2019-01-28T08:27:04.541Z,7.73
2019-01-28T08:28:07.835Z,7.84
2019-01-28T08:29:11.111Z,7.89
2019-01-28T08:30:17.805Z,7.95
2019-01-28T08:31:21.137Z,8.14
2019-01-28T08:32:24.422Z,8.33
2019-01-28T08:33:27.716Z,8.57
2019-01-28T08:34:31.083Z,8.85
2019-01-28T08:35:34.826Z,9.06
2019-01-28T08:36:38.141Z,9.27
2019-01-28T08:37:41.498Z,9.26
2019-01-28T08:38:44.835Z,9.28
2019-01-28T08:39:48.123Z,9.30
2019-01-28T08:40:51.405Z,9.26
2019-01-28T08:41:54.769Z,9.28
2019-01-28T08:42:58.330Z,9.22
2019-01-28T08:44:01.691Z,9.21
2019-01-28T08:45:10.608Z,9.19
2019-01-28T08:46:13.889Z,9.10
2019-01-28T08:47:17.278Z,9.12
2019-01-28T08:48:20.627Z,9.18
2019-01-28T08:49:23.902Z,9.06
2019-01-28T08:50:28.935Z,9.02
2019-01-28T08:51:32.292Z,9.06
2019-01-28T08:52:35.618Z,9.02
2019-01-28T08:53:38.915Z,9.07
2019-01-28T08:54:42.567Z,9.10
2019-01-28T08:55:45.849Z,9.15
2019-01-28T08:56:49.130Z,9.15
2019-01-28T08:57:52.536Z,9.14
2019-01-28T08:58:56.026Z,9.29
2019-01-28T08:59:59.342Z,9.44
2019-01-28T09:01:02.687Z,9.56
2019-01-28T09:02:06.255Z,9.64
2019-01-28T09:03:09.578Z,9.70
2019-01-28T09:04:12.857Z,9.69
2019-01-28T09:05:17.288Z,9.78
2019-01-28T09:06:20.578Z,9.85
2019-01-28T09:07:23.858Z,9.75
2019-01-28T09:08:27.184Z,9.76
2019-01-28T09:09:30.479Z,9.84
2019-01-28T09:10:33.837Z,9.96
2019-01-28T09:11:37.246Z,9.97
2019-01-28T09:12:42.119Z,9.98
2019-01-28T09:13:45.443Z,10.15
2019-01-28T09:14:48.857Z,10.24
2019-01-28T09:15:52.211Z,10.29
2019-01-28T09:16:55.633Z,10.39
2019-01-28T09:17:58.988Z,10.58
2019-01-28T09:19:02.261Z,10.57
2019-01-28T09:20:08.818Z,10.55
2019-01-28T09:21:12.183Z,10.61
2019-01-28T09:22:15.468Z,10.63
2019-01-28T09:23:18.810Z,10.60
2019-01-28T09:24:22.137Z,10.50
2019-01-28T09:25:25.500Z,10.51
2019-01-28T09:26:28.774Z,10.57
2019-01-28T09:27:32.061Z,10.60
2019-01-28T09:28:35.439Z,10.44
2019-01-28T09:29:38.845Z,10.36
2019-01-28T09:30:42.121Z,10.43
2019-01-28T09:31:45.509Z,10.43
2019-01-28T09:32:48.791Z,10.42
2019-01-28T09:33:52.073Z,10.56
2019-01-28T09:34:55.519Z,10.49
2019-01-28T09:35:58.861Z,10.34
2019-01-28T09:37:02.577Z,10.26
2019-01-28T09:38:05.868Z,10.39
2019-01-28T09:39:09.158Z,10.56
2019-01-28T09:40:15.521Z,10.86
2019-01-28T09:41:18.803Z,10.86
2019-01-28T09:42:22.168Z,10.76
2019-01-28T09:43:26.577Z,10.96
2019-01-28T09:44:30.048Z,11.26
2019-01-28T09:45:36.071Z,11.55
2019-01-28T09:46:39.362Z,12.27
2019-01-28T09:47:42.663Z,12.53
2019-01-28T09:48:47.382Z,12.73
2019-01-28T09:49:50.615Z,12.73
2019-01-28T09:50:54.015Z,13.09
2019-01-28T09:51:57.302Z,13.15
2019-01-28T09:53:00.673Z,13.15
2019-01-28T09:54:04.043Z,13.13
2019-01-28T09:55:10.766Z,13.13
2019-01-28T09:56:14.659Z,13.24
2019-01-28T09:57:17.969Z,13.21
2019-01-28T09:58:21.333Z,13.40
2019-01-28T09:59:24.682Z,13.65
2019-01-28T10:00:33.786Z,13.85
2019-01-28T10:01:37.178Z,14.02
2019-01-28T10:02:40.452Z,14.26
2019-01-28T10:03:43.803Z,14.48
2019-01-28T10:04:47.091Z,14.57
2019-01-28T10:05:50.506Z,14.42
2019-01-28T10:06:53.900Z,14.49
2019-01-28T10:07:57.249Z,14.66
2019-01-28T10:09:00.526Z,14.66
2019-01-28T10:10:05.708Z,14.71
2019-01-28T10:11:09.183Z,14.84
2019-01-28T10:12:12.538Z,14.87
2019-01-28T10:13:17.110Z,14.81
2019-01-28T10:14:20.434Z,14.88
2019-01-28T10:15:28.789Z,14.92
2019-01-28T10:16:30.278Z,14.85
2019-01-28T10:17:33.578Z,14.71
2019-01-28T10:18:41.862Z,14.69
2019-01-28T10:19:43.879Z,14.68
2019-01-28T10:20:47.703Z,14.81
2019-01-28T10:21:50.992Z,14.69
2019-01-28T10:22:54.321Z,14.83
2019-01-28T10:23:57.596Z,14.82
2019-01-28T10:25:01.788Z,14.80
2019-01-28T10:26:05.548Z,14.71
2019-01-28T10:27:08.846Z,14.61
2019-01-28T10:28:12.180Z,14.39
2019-01-28T10:29:15.536Z,14.69
2019-01-28T10:30:27.100Z,15.00
2019-01-28T10:31:30.385Z,15.10
2019-01-28T10:32:36.237Z,14.96
2019-01-28T10:33:38.723Z,14.86
2019-01-28T10:34:42.010Z,14.99
2019-01-28T10:35:45.300Z,14.94
2019-01-28T10:36:48.590Z,14.82
2019-01-28T10:37:51.877Z,15.05
2019-01-28T10:38:55.256Z,15.27
2019-01-28T10:39:58.561Z,15.40
2019-01-28T10:41:01.845Z,15.57
2019-01-28T10:42:09.723Z,15.78
2019-01-28T10:43:10.271Z,15.89
2019-01-28T10:44:13.570Z,15.96
2019-01-28T10:45:17.234Z,16.03
2019-01-28T10:46:20.511Z,16.02
2019-01-28T10:47:23.903Z,16.20
2019-01-28T10:48:27.209Z,16.26
2019-01-28T10:49:30.568Z,16.50
2019-01-28T10:50:33.963Z,16.52
2019-01-28T10:51:37.626Z,16.53
2019-01-28T10:52:40.928Z,16.77
2019-01-28T10:53:44.216Z,16.79
2019-01-28T10:54:47.621Z,17.07
2019-01-28T10:55:50.971Z,17.25
2019-01-28T10:56:54.252Z,17.12
2019-01-28T10:57:57.771Z,16.82
2019-01-28T10:59:01.044Z,16.72
2019-01-28T11:00:11.542Z,16.85
2019-01-28T11:01:12.637Z,16.92
2019-01-28T11:02:15.924Z,17.04
2019-01-28T11:03:19.552Z,16.90
2019-01-28T11:04:22.847Z,16.70
2019-01-28T11:05:26.165Z,16.20
2019-01-28T11:06:29.449Z,15.84
2019-01-28T11:07:32.736Z,15.63
2019-01-28T11:08:36.017Z,15.54
2019-01-28T11:09:39.413Z,15.74
2019-01-28T11:10:42.762Z,15.95
2019-01-28T11:11:46.103Z,15.99
2019-01-28T11:12:49.462Z,16.22
2019-01-28T11:13:52.880Z,16.27
2019-01-28T11:14:56.264Z,16.44
2019-01-28T11:15:59.654Z,16.30
2019-01-28T11:17:03.018Z,16.26
2019-01-28T11:18:09.656Z,16.39
2019-01-28T11:19:13.037Z,16.13
2019-01-28T11:20:17.222Z,15.91
2019-01-28T11:21:20.551Z,15.75
2019-01-28T11:22:23.948Z,15.19
2019-01-28T11:23:27.264Z,15.32
2019-01-28T11:24:30.639Z,15.55
2019-01-28T11:25:33.959Z,15.69
2019-01-28T11:26:37.269Z,15.69
2019-01-28T11:27:40.654Z,15.95
2019-01-28T11:28:44.858Z,16.27
2019-01-28T11:29:48.360Z,16.45
2019-01-28T11:30:55.465Z,16.48
2019-01-28T11:31:59.243Z,16.47
2019-01-28T11:33:02.526Z,16.49
2019-01-28T11:34:05.813Z,16.72
2019-01-28T11:35:09.206Z,16.90
2019-01-28T11:36:12.628Z,17.09
2019-01-28T11:37:16.401Z,17.42
2019-01-28T11:38:20.668Z,17.52
2019-01-28T11:39:24.102Z,17.43
2019-01-28T11:40:27.359Z,17.35
2019-01-28T11:41:30.821Z,17.47
2019-01-28T11:42:34.376Z,17.52
2019-01-28T11:43:37.809Z,17.52
2019-01-28T11:44:41.058Z,17.22
2019-01-28T11:45:59.621Z,16.92
2019-01-28T11:47:03.060Z,16.93
2019-01-28T11:48:06.920Z,16.86
2019-01-28T11:49:10.299Z,16.88
2019-01-28T11:50:15.979Z,16.58
2019-01-28T11:51:19.305Z,16.65
2019-01-28T11:52:22.724Z,16.62
2019-01-28T11:53:28.306Z,16.73
2019-01-28T11:54:31.591Z,16.98
2019-01-28T11:55:34.928Z,17.02
2019-01-28T11:56:38.238Z,17.14
2019-01-28T11:57:41.931Z,17.14
2019-01-28T11:58:45.358Z,17.00
2019-01-28T11:59:48.636Z,17.27
2019-01-28T12:00:59.229Z,17.23
2019-01-28T12:02:02.569Z,17.15
2019-01-28T12:03:05.827Z,16.99
2019-01-28T12:04:09.183Z,16.79
2019-01-28T12:05:12.473Z,16.53
2019-01-28T12:06:15.843Z,16.34
2019-01-28T12:07:19.162Z,16.10
2019-01-28T12:08:22.859Z,15.92
2019-01-28T12:09:26.443Z,15.93
2019-01-28T12:10:29.791Z,15.80
2019-01-28T12:11:33.079Z,15.61
2019-01-28T12:12:36.397Z,15.52
2019-01-28T12:13:39.703Z,15.56
2019-01-28T12:14:42.966Z,15.26
2019-01-28T12:15:46.251Z,15.18
2019-01-28T12:16:49.836Z,14.88
2019-01-28T12:17:53.152Z,14.88
2019-01-28T12:18:56.503Z,14.85
2019-01-28T12:19:59.889Z,14.85
2019-01-28T12:21:03.209Z,14.78
2019-01-28T12:22:06.904Z,14.62
2019-01-28T12:23:10.231Z,14.49
2019-01-28T12:24:13.674Z,14.49
2019-01-28T12:25:17.436Z,14.36
2019-01-28T12:26:20.737Z,14.24
2019-01-28T12:27:24.013Z,14.35
2019-01-28T12:28:27.328Z,14.41
2019-01-28T12:29:30.981Z,14.52
2019-01-28T12:30:34.279Z,14.65
2019-01-28T12:31:37.560Z,14.42
2019-01-28T12:32:41.178Z,14.08
2019-01-28T12:33:44.507Z,13.93
2019-01-28T12:34:47.780Z,13.66
2019-01-28T12:35:51.074Z,13.57
2019-01-28T12:36:54.351Z,13.50
2019-01-28T12:37:58.004Z,13.28
2019-01-28T12:39:01.335Z,13.18
2019-01-28T12:40:07.860Z,12.96
2019-01-28T12:41:17.332Z,12.81
2019-01-28T12:42:16.185Z,12.71
2019-01-28T12:43:19.621Z,12.55
2019-01-28T12:44:22.944Z,12.37
2019-01-28T12:45:27.973Z,12.30
2019-01-28T12:46:31.252Z,12.11
2019-01-28T12:47:34.546Z,12.11
2019-01-28T12:48:37.828Z,11.93
2019-01-28T12:49:41.138Z,11.93
2019-01-28T12:50:44.421Z,11.99
2019-01-28T12:51:47.792Z,11.99
2019-01-28T12:52:51.055Z,11.90
2019-01-28T12:53:54.335Z,11.80
2019-01-28T12:54:57.650Z,11.80
2019-01-28T12:56:00.934Z,11.79
2019-01-28T12:57:04.220Z,11.68
2019-01-28T12:58:07.510Z,11.68
2019-01-28T12:59:10.784Z,11.60
2019-01-28T13:00:23.611Z,11.60
2019-01-28T13:01:27.011Z,11.47
2019-01-28T13:02:30.313Z,11.54
2019-01-28T13:03:33.609Z,11.40
2019-01-28T13:04:42.083Z,11.40
2019-01-28T13:05:42.699Z,11.44
2019-01-28T13:06:45.990Z,11.49
2019-01-28T13:07:49.346Z,11.49
2019-01-28T13:08:52.619Z,11.49
2019-01-28T13:09:55.909Z,11.55
2019-01-28T13:10:59.232Z,11.55
2019-01-28T13:12:02.527Z,11.55
2019-01-28T13:13:05.873Z,11.64
2019-01-28T13:14:10.203Z,11.67
2019-01-28T13:15:21.832Z,11.64
2019-01-28T13:16:25.152Z,11.64
2019-01-28T13:17:28.584Z,11.74
2019-01-28T13:18:32.024Z,11.72
2019-01-28T13:19:35.301Z,11.69
2019-01-28T13:20:40.288Z,11.38
2019-01-28T13:21:43.857Z,11.38
2019-01-28T13:22:47.148Z,11.36
2019-01-28T13:23:50.508Z,11.32
2019-01-28T13:24:53.791Z,11.34
2019-01-28T13:25:57.082Z,11.40
2019-01-28T13:27:00.394Z,11.40
2019-01-28T13:28:03.764Z,11.37
2019-01-28T13:29:07.095Z,11.48
2019-01-28T13:30:16.538Z,11.49
2019-01-28T13:31:19.960Z,11.49
2019-01-28T13:32:23.287Z,11.48
2019-01-28T13:33:26.590Z,11.56
2019-01-28T13:34:29.950Z,11.40
2019-01-28T13:35:33.303Z,11.38
2019-01-28T13:36:36.967Z,11.38
2019-01-28T13:37:40.415Z,11.33
2019-01-28T13:38:43.771Z,11.25
2019-01-28T13:39:47.159Z,11.21
2019-01-28T13:40:50.506Z,11.23
2019-01-28T13:41:53.859Z,11.24
2019-01-28T13:42:57.353Z,11.20
2019-01-28T13:44:00.633Z,11.18
2019-01-28T13:45:05.798Z,10.93
2019-01-28T13:46:09.070Z,10.93
2019-01-28T13:47:12.352Z,10.83
2019-01-28T13:48:15.675Z,10.83
2019-01-28T13:49:19.100Z,10.86
2019-01-28T13:50:23.720Z,10.92
2019-01-28T13:51:27.010Z,10.92
2019-01-28T13:52:31.546Z,10.92
2019-01-28T13:53:34.999Z,10.87
2019-01-28T13:54:38.358Z,10.75
2019-01-28T13:55:41.646Z,10.76
2019-01-28T13:56:44.940Z,10.76
2019-01-28T13:57:48.235Z,10.77